createdAt,value
2022-12-08T00:01:59.320Z,45.80
2022-12-08T00:04:27.905Z,49.57
2022-12-08T00:07:15.103Z,49.03
2022-12-08T00:09:43.706Z,49.57
2022-12-08T00:12:15.349Z,51.67
2022-12-08T00:14:46.536Z,51.17
2022-12-08T00:17:16.863Z,47.90
2022-12-08T00:19:46.011Z,51.80
2022-12-08T00:22:16.341Z,48.27
2022-12-08T00:24:46.621Z,49.60
2022-12-08T00:27:18.156Z,47.67
2022-12-08T00:29:46.792Z,49.30
2022-12-08T00:35:01.187Z,44.67
2022-12-08T00:37:30.911Z,49.03
2022-12-08T00:39:59.021Z,45.57
2022-12-08T00:42:27.163Z,44.90
2022-12-08T00:44:55.742Z,50.17
2022-12-08T00:47:25.065Z,46.87
2022-12-08T00:49:53.353Z,52.43
2022-12-08T00:52:21.932Z,48.97
2022-12-08T00:54:51.452Z,44.97
2022-12-08T00:57:19.630Z,47.83
2022-12-08T00:59:47.765Z,45.23
2022-12-08T01:02:16.207Z,47.47
2022-12-08T01:04:44.655Z,48.97
2022-12-08T01:07:12.859Z,43.07
2022-12-08T01:09:41.011Z,49.43
2022-12-08T01:12:10.818Z,46.03
2022-12-08T01:14:39.046Z,40.70
2022-12-08T01:17:07.219Z,46.00
2022-12-08T01:19:35.459Z,48.47
2022-12-08T01:22:03.528Z,42.67
2022-12-08T01:24:32.375Z,40.63
2022-12-08T01:27:00.555Z,42.80
2022-12-08T01:29:30.041Z,40.50
2022-12-08T01:31:58.224Z,38.27
2022-12-08T01:34:26.310Z,40.43
2022-12-08T01:36:54.444Z,43.63
2022-12-08T01:39:22.793Z,48.07
2022-12-08T01:41:51.001Z,49.20
2022-12-08T01:45:07.890Z,46.50
2022-12-08T01:47:43.469Z,42.63
2022-12-08T01:50:14.901Z,43.33
2022-12-08T01:52:47.863Z,41.10
2022-12-08T01:55:21.995Z,45.67
2022-12-08T01:57:57.042Z,41.10
2022-12-08T02:00:25.758Z,38.47
2022-12-08T02:02:59.593Z,37.47
2022-12-08T02:05:31.502Z,42.07
2022-12-08T02:08:01.736Z,39.83
2022-12-08T02:10:36.408Z,39.37
2022-12-08T02:13:05.877Z,40.23
2022-12-08T02:15:43.039Z,36.87
2022-12-08T02:18:30.919Z,39.60
2022-12-08T02:21:05.098Z,55.93
2022-12-08T02:23:43.272Z,48.87
2022-12-08T02:26:41.002Z,46.47
2022-12-08T02:29:50.426Z,42.97
2022-12-08T02:32:58.729Z,37.40
2022-12-08T02:35:36.753Z,38.33
2022-12-08T02:38:13.571Z,45.90
2022-12-08T02:40:50.896Z,50.07
2022-12-08T02:43:27.889Z,41.83
2022-12-08T02:46:01.188Z,41.40
2022-12-08T02:48:30.000Z,40.30
2022-12-08T02:50:59.490Z,40.13
2022-12-08T02:53:31.984Z,37.17
2022-12-08T02:56:07.224Z,35.27
2022-12-08T02:59:04.329Z,36.70
2022-12-08T03:01:50.003Z,38.07
2022-12-08T03:04:27.943Z,36.97
2022-12-08T03:07:04.444Z,38.57
2022-12-08T03:09:39.834Z,34.67
2022-12-08T03:12:16.754Z,37.07
2022-12-08T03:14:49.413Z,34.67
2022-12-08T03:17:22.213Z,38.10
2022-12-08T03:19:51.249Z,39.77
2022-12-08T03:22:26.069Z,40.57
2022-12-08T03:24:55.171Z,38.83
2022-12-08T03:27:25.912Z,36.27
2022-12-08T03:29:56.959Z,39.43
2022-12-08T03:32:30.283Z,33.07
2022-12-08T03:35:02.307Z,39.10
2022-12-08T03:37:32.436Z,39.77
2022-12-08T03:40:00.553Z,42.60
2022-12-08T03:42:28.645Z,38.17
2022-12-08T03:44:57.040Z,48.70
2022-12-08T03:47:25.274Z,40.13
2022-12-08T03:49:53.446Z,33.03
2022-12-08T03:52:21.527Z,38.30
2022-12-08T03:54:50.976Z,36.13
2022-12-08T03:57:19.206Z,41.23
2022-12-08T03:59:47.868Z,51.27
2022-12-08T04:02:15.997Z,43.93
2022-12-08T04:04:45.209Z,36.83
2022-12-08T04:07:13.357Z,35.00
2022-12-08T04:09:41.888Z,38.63
2022-12-08T04:12:11.465Z,33.87
2022-12-08T04:14:39.616Z,36.80
2022-12-08T04:17:07.735Z,32.67
2022-12-08T04:19:35.905Z,35.03
2022-12-08T04:22:04.027Z,34.07
2022-12-08T04:24:32.153Z,37.43
2022-12-08T04:27:00.334Z,31.40
2022-12-08T04:29:29.852Z,41.87
2022-12-08T04:31:58.096Z,35.27
2022-12-08T04:34:26.234Z,33.73
2022-12-08T04:36:54.839Z,37.20
2022-12-08T04:39:23.014Z,35.80
2022-12-08T04:41:51.176Z,39.30
2022-12-08T04:44:19.348Z,36.80
2022-12-08T04:46:48.873Z,33.93
2022-12-08T04:49:17.006Z,37.43
2022-12-08T04:51:45.200Z,39.17
2022-12-08T04:54:13.352Z,36.07
2022-12-08T04:56:41.747Z,40.97
2022-12-08T04:59:09.950Z,35.93
2022-12-08T05:01:38.612Z,36.80
2022-12-08T05:04:08.221Z,32.80
2022-12-08T05:06:36.416Z,37.00
2022-12-08T05:09:04.850Z,34.03
2022-12-08T05:11:33.075Z,41.87
2022-12-08T05:14:01.173Z,40.67
2022-12-08T05:16:29.521Z,38.37
2022-12-08T05:18:57.683Z,40.93
2022-12-08T05:21:27.164Z,40.43
2022-12-08T05:23:55.280Z,32.50
2022-12-08T05:26:23.371Z,38.27
2022-12-08T05:28:51.587Z,37.07
2022-12-08T05:31:20.178Z,39.90
2022-12-08T05:33:48.445Z,39.87
2022-12-08T05:36:17.932Z,34.37
2022-12-08T05:38:48.334Z,38.00
2022-12-08T05:41:18.740Z,42.00
2022-12-08T05:43:47.583Z,42.47
2022-12-08T05:46:16.572Z,40.33
2022-12-08T05:48:44.920Z,41.10
2022-12-08T05:51:19.839Z,41.90
2022-12-08T05:53:50.309Z,38.67
2022-12-08T05:56:19.097Z,44.37
2022-12-08T05:58:47.477Z,45.73
2022-12-08T06:01:23.905Z,41.07
2022-12-08T06:03:52.074Z,45.77
2022-12-08T06:06:20.496Z,51.63
2022-12-08T06:08:50.227Z,39.33
2022-12-08T06:11:24.137Z,48.07
2022-12-08T06:13:52.946Z,46.70
2022-12-08T06:16:21.160Z,51.93
2022-12-08T06:18:49.374Z,51.13
2022-12-08T06:21:18.337Z,45.27
2022-12-08T06:23:51.270Z,48.77
2022-12-08T06:26:19.758Z,53.00
2022-12-08T06:28:48.070Z,44.80
2022-12-08T06:31:17.915Z,39.37
2022-12-08T06:33:46.776Z,41.70
2022-12-08T06:36:17.316Z,47.10
2022-12-08T06:38:46.073Z,42.70
2022-12-08T06:41:15.711Z,40.30
2022-12-08T06:43:44.658Z,44.83
2022-12-08T06:46:15.447Z,46.30
2022-12-08T06:48:43.990Z,54.80
2022-12-08T06:51:14.344Z,41.77
2022-12-08T06:53:43.152Z,43.23
2022-12-08T06:56:12.369Z,43.50
2022-12-08T06:58:42.431Z,49.17
2022-12-08T07:01:15.197Z,44.27
2022-12-08T07:03:43.667Z,49.73
2022-12-08T07:06:17.155Z,53.03
2022-12-08T07:08:45.339Z,48.50
2022-12-08T07:11:19.688Z,43.30
2022-12-08T07:13:51.362Z,48.03
2022-12-08T07:16:19.683Z,45.90
2022-12-08T07:18:47.912Z,42.40
2022-12-08T07:21:16.762Z,48.27
2022-12-08T07:23:52.674Z,49.90
2022-12-08T07:26:25.444Z,48.60
2022-12-08T07:28:55.409Z,47.03
2022-12-08T07:31:25.312Z,48.50
2022-12-08T07:33:54.173Z,51.77
2022-12-08T07:36:23.723Z,47.60
2022-12-08T07:38:53.818Z,48.07
2022-12-08T07:41:23.879Z,41.30
2022-12-08T07:43:53.631Z,44.43
2022-12-08T07:46:25.398Z,41.13
2022-12-08T07:48:54.043Z,45.67
2022-12-08T07:51:22.190Z,46.93
2022-12-08T07:53:54.307Z,45.33
2022-12-08T07:56:23.240Z,46.53
2022-12-08T07:58:51.388Z,43.20
2022-12-08T08:01:23.083Z,44.30
2022-12-08T08:03:51.450Z,51.50
2022-12-08T08:06:19.537Z,42.57
2022-12-08T08:08:47.788Z,45.87
2022-12-08T08:11:21.008Z,51.40
2022-12-08T08:13:49.916Z,43.67
2022-12-08T08:16:18.700Z,47.00
2022-12-08T08:18:53.203Z,45.80
2022-12-08T08:21:45.185Z,43.83
2022-12-08T08:24:10.427Z,46.97
2022-12-08T08:26:38.497Z,45.63
2022-12-08T08:29:06.669Z,46.13
2022-12-08T08:31:34.834Z,41.93
2022-12-08T08:34:06.495Z,47.40
2022-12-08T08:36:35.254Z,36.30
2022-12-08T08:39:03.541Z,41.03
2022-12-08T08:41:31.678Z,43.70
2022-12-08T08:43:59.895Z,42.57
2022-12-08T08:46:28.336Z,36.83
2022-12-08T08:48:56.506Z,43.17
2022-12-08T08:51:26.114Z,39.43
2022-12-08T08:53:54.311Z,39.83
2022-12-08T08:56:22.549Z,43.40
2022-12-08T08:58:51.989Z,45.63
2022-12-08T09:01:22.282Z,55.20
2022-12-08T09:03:50.731Z,41.03
2022-12-08T09:06:19.244Z,62.93
2022-12-08T09:08:49.624Z,41.50
2022-12-08T09:11:18.778Z,45.17
2022-12-08T09:13:49.223Z,43.67
2022-12-08T09:16:18.736Z,45.40
2022-12-08T09:18:48.112Z,48.43
2022-12-08T09:21:22.527Z,38.40
2022-12-08T09:23:53.015Z,46.63
2022-12-08T09:26:22.603Z,36.53
2022-12-08T09:28:51.199Z,44.50
2022-12-08T09:31:20.665Z,45.87
2022-12-08T09:33:48.856Z,51.73
2022-12-08T09:36:16.933Z,46.60
2022-12-08T09:38:46.734Z,48.13
2022-12-08T09:41:21.504Z,51.07
2022-12-08T09:44:04.297Z,47.90
2022-12-08T09:46:35.556Z,45.87
2022-12-08T09:49:05.560Z,46.20
2022-12-08T09:51:39.306Z,45.77
2022-12-08T09:54:12.679Z,51.57
2022-12-08T09:56:42.711Z,44.30
2022-12-08T09:59:24.075Z,45.67
2022-12-08T10:01:52.869Z,51.13
2022-12-08T10:04:26.209Z,51.47
2022-12-08T10:07:04.938Z,51.17
2022-12-08T10:09:41.913Z,58.27
2022-12-08T10:12:22.209Z,59.53
2022-12-08T10:15:00.161Z,55.90
2022-12-08T10:17:34.509Z,55.57
2022-12-08T10:20:11.345Z,53.63
2022-12-08T10:22:44.459Z,51.43
2022-12-08T10:25:18.326Z,53.90
2022-12-08T10:27:49.966Z,57.00
2022-12-08T10:30:20.394Z,49.97
2022-12-08T10:32:52.147Z,54.87
2022-12-08T10:35:22.832Z,50.57
2022-12-08T10:37:58.411Z,49.80
2022-12-08T10:40:29.850Z,55.33
2022-12-08T10:43:00.733Z,59.97
2022-12-08T10:45:31.321Z,53.50
2022-12-08T10:48:05.970Z,52.30
2022-12-08T10:50:37.080Z,54.43
2022-12-08T10:53:14.485Z,55.33
2022-12-08T10:55:46.395Z,59.90
2022-12-08T10:58:37.161Z,53.63
2022-12-08T11:01:11.004Z,58.60
2022-12-08T11:03:46.438Z,56.43
2022-12-08T11:06:19.093Z,56.77
2022-12-08T11:08:51.373Z,54.50
2022-12-08T11:11:25.859Z,56.03
2022-12-08T11:13:58.720Z,52.70
2022-12-08T11:16:27.003Z,59.63
2022-12-08T11:18:59.474Z,52.87
2022-12-08T11:21:37.107Z,55.13
2022-12-08T11:24:24.123Z,60.63
2022-12-08T11:26:55.850Z,63.63
2022-12-08T11:29:25.431Z,55.83
2022-12-08T11:31:58.444Z,50.20
2022-12-08T11:34:34.211Z,54.97
2022-12-08T11:37:05.029Z,56.13
2022-12-08T11:39:36.465Z,59.30
2022-12-08T11:42:08.902Z,59.07
2022-12-08T11:44:44.148Z,58.63
2022-12-08T11:47:18.855Z,54.30
2022-12-08T11:49:50.366Z,54.37
2022-12-08T11:52:23.877Z,54.03
2022-12-08T11:54:57.081Z,61.00
2022-12-08T11:57:28.183Z,55.03
2022-12-08T11:59:59.758Z,51.67
2022-12-08T12:02:30.254Z,50.40
2022-12-08T12:05:04.361Z,56.37
2022-12-08T12:07:48.749Z,46.20
2022-12-08T12:10:29.498Z,52.93
2022-12-08T12:13:08.920Z,55.70
2022-12-08T12:16:27.813Z,56.90
2022-12-08T12:19:00.153Z,47.53
2022-12-08T12:21:33.594Z,48.33
2022-12-08T12:24:07.566Z,47.93
2022-12-08T12:26:38.698Z,60.27
2022-12-08T12:29:14.169Z,53.33
2022-12-08T12:31:48.735Z,69.40
2022-12-08T12:34:22.389Z,62.70
2022-12-08T12:36:54.016Z,63.60
2022-12-08T12:39:24.575Z,56.83
2022-12-08T12:41:55.458Z,50.40
2022-12-08T12:44:44.492Z,56.77
2022-12-08T12:47:48.647Z,53.17
2022-12-08T12:50:55.224Z,44.80
2022-12-08T12:53:49.873Z,50.10
2022-12-08T12:56:50.152Z,49.60
2022-12-08T12:59:45.497Z,45.40
2022-12-08T13:02:25.239Z,44.80
2022-12-08T13:05:00.756Z,47.33
2022-12-08T13:07:32.134Z,55.07
2022-12-08T13:10:04.035Z,51.70
2022-12-08T13:12:32.751Z,46.50
2022-12-08T13:15:05.733Z,53.67
2022-12-08T13:17:38.472Z,49.43
2022-12-08T13:20:19.077Z,47.67
2022-12-08T13:23:04.785Z,48.83
2022-12-08T13:26:14.764Z,48.27
2022-12-08T13:29:23.241Z,50.37
2022-12-08T13:31:53.818Z,46.57
2022-12-08T13:34:35.198Z,47.93
2022-12-08T13:37:19.043Z,47.47
2022-12-08T13:39:52.281Z,49.17
2022-12-08T13:42:26.126Z,48.07
2022-12-08T13:48:21.559Z,52.67
2022-12-08T13:59:30.842Z,44.97
2022-12-08T14:02:00.724Z,42.87
2022-12-08T14:05:16.203Z,38.93
2022-12-08T14:07:19.030Z,43.17
2022-12-08T14:09:48.021Z,39.03
2022-12-08T14:12:21.144Z,42.83
2022-12-08T14:15:08.065Z,46.33
2022-12-08T14:17:36.247Z,46.63
2022-12-08T14:20:18.242Z,47.07
2022-12-08T14:22:47.926Z,50.37
2022-12-08T14:25:18.271Z,48.30
2022-12-08T14:27:47.707Z,50.63
2022-12-08T14:30:26.181Z,57.57
2022-12-08T14:32:56.843Z,51.37
2022-12-08T14:35:28.281Z,60.23
2022-12-08T14:38:00.188Z,53.03
2022-12-08T14:40:34.843Z,51.43
2022-12-08T14:43:17.153Z,54.03
2022-12-08T14:45:53.589Z,55.17
2022-12-08T14:48:26.774Z,53.43
2022-12-08T14:51:02.914Z,49.97
2022-12-08T14:53:39.857Z,52.53
2022-12-08T14:56:10.264Z,52.50
2022-12-08T14:58:38.394Z,54.43
2022-12-08T15:01:10.485Z,55.53
2022-12-08T15:03:38.727Z,55.37
2022-12-08T15:06:08.861Z,56.83
2022-12-08T15:08:53.116Z,61.30
2022-12-08T15:11:33.104Z,58.30
2022-12-08T15:14:01.624Z,58.07
2022-12-08T15:16:33.125Z,59.83
2022-12-08T15:19:06.069Z,60.70
2022-12-08T15:21:40.044Z,62.07
2022-12-08T15:24:12.420Z,63.50
2022-12-08T15:26:43.174Z,64.70
2022-12-08T15:29:12.973Z,64.03
2022-12-08T15:31:41.143Z,70.30
2022-12-08T15:34:09.261Z,59.80
2022-12-08T15:36:38.160Z,59.27
2022-12-08T15:39:26.984Z,67.13
2022-12-08T15:41:55.193Z,63.43
2022-12-08T15:44:24.050Z,73.67
2022-12-08T15:46:52.276Z,69.47
2022-12-08T15:49:22.973Z,69.07
2022-12-08T15:51:55.684Z,63.17
2022-12-08T15:54:30.241Z,63.00
2022-12-08T15:59:47.562Z,70.13
2022-12-08T16:02:22.357Z,71.63
2022-12-08T16:07:39.541Z,62.83
2022-12-08T16:10:12.596Z,62.23
2022-12-08T16:13:55.463Z,67.37
2022-12-08T16:15:55.142Z,61.50
2022-12-08T16:18:29.919Z,49.63
2022-12-08T16:21:12.467Z,60.17
2022-12-08T16:23:46.718Z,50.60
2022-12-08T16:26:44.125Z,50.33
2022-12-08T16:29:06.853Z,61.67
2022-12-08T16:31:35.552Z,59.90
2022-12-08T16:34:03.798Z,53.90
2022-12-08T16:36:32.383Z,59.97
2022-12-08T16:39:00.575Z,84.30
2022-12-08T16:41:47.163Z,60.73
2022-12-08T16:44:16.439Z,60.10
2022-12-08T16:46:44.649Z,61.23
2022-12-08T16:49:12.700Z,53.23
2022-12-08T16:51:43.948Z,56.40
2022-12-08T16:54:12.165Z,55.43
2022-12-08T16:56:42.047Z,75.70
2022-12-08T16:59:10.071Z,66.73
2022-12-08T17:01:38.542Z,62.30
2022-12-08T17:04:30.371Z,55.60
2022-12-08T17:06:54.974Z,59.13
2022-12-08T17:09:23.068Z,50.33
2022-12-08T17:11:53.103Z,59.03
2022-12-08T17:14:21.379Z,60.93
2022-12-08T17:16:49.657Z,60.77
2022-12-08T17:19:19.031Z,65.03
2022-12-08T17:21:47.225Z,63.00
2022-12-08T17:24:18.656Z,62.63
2022-12-08T17:26:50.021Z,61.13
2022-12-08T17:29:19.748Z,56.97
2022-12-08T17:31:48.173Z,56.27
2022-12-08T17:34:16.394Z,82.20
2022-12-08T17:36:45.172Z,71.63
2022-12-08T17:39:18.393Z,64.60
2022-12-08T17:41:47.153Z,68.50
2022-12-08T17:44:17.900Z,64.47
2022-12-08T17:46:52.679Z,63.23
2022-12-08T17:49:24.591Z,68.00
2022-12-08T17:51:54.764Z,68.03
2022-12-08T17:54:23.268Z,63.10
2022-12-08T17:56:51.540Z,67.73
2022-12-08T17:59:19.992Z,73.63
2022-12-08T18:01:49.663Z,64.47
2022-12-08T18:04:17.867Z,68.33
2022-12-08T18:06:46.584Z,68.47
2022-12-08T18:09:14.916Z,70.43
2022-12-08T18:11:47.290Z,68.47
2022-12-08T18:14:16.152Z,59.97
2022-12-08T18:16:46.371Z,70.17
2022-12-08T18:19:16.811Z,66.67
2022-12-08T18:21:45.200Z,64.63
2022-12-08T18:24:19.001Z,60.53
2022-12-08T18:26:47.787Z,63.17
2022-12-08T18:29:16.092Z,58.37
2022-12-08T18:31:44.395Z,54.10
2022-12-08T18:34:12.648Z,58.67
2022-12-08T18:36:42.742Z,61.23
2022-12-08T18:39:22.218Z,61.33
2022-12-08T18:41:50.631Z,67.33
2022-12-08T18:44:19.439Z,60.93
2022-12-08T18:46:47.638Z,55.53
2022-12-08T18:49:17.570Z,63.40
2022-12-08T18:51:47.451Z,54.90
2022-12-08T18:54:15.606Z,58.77
2022-12-08T18:56:43.759Z,58.87
2022-12-08T18:59:13.317Z,61.33
2022-12-08T19:01:42.483Z,70.27
2022-12-08T19:04:40.703Z,60.53
2022-12-08T19:07:00.399Z,67.07
2022-12-08T19:09:29.142Z,68.47
2022-12-08T19:11:58.245Z,61.40
2022-12-08T19:14:28.590Z,82.20
2022-12-08T19:16:57.274Z,73.83
2022-12-08T19:19:25.516Z,75.70
2022-12-08T19:21:53.943Z,77.37
2022-12-08T19:24:23.675Z,73.17
2022-12-08T19:26:54.673Z,74.40
2022-12-08T19:29:22.833Z,75.43
2022-12-08T19:31:51.163Z,82.70
2022-12-08T19:34:20.303Z,69.00
2022-12-08T19:36:49.099Z,71.90
2022-12-08T19:39:37.391Z,80.10
2022-12-08T19:42:30.513Z,70.90
2022-12-08T19:45:01.115Z,68.60
2022-12-08T19:47:44.206Z,85.13
2022-12-08T19:50:31.361Z,64.73
2022-12-08T19:52:59.549Z,67.93
2022-12-08T19:55:28.127Z,68.17
2022-12-08T19:57:58.420Z,71.43
2022-12-08T20:00:26.535Z,69.87
2022-12-08T20:02:55.276Z,73.97
2022-12-08T20:05:24.108Z,71.27
2022-12-08T20:07:55.696Z,62.93
2022-12-08T20:10:28.145Z,61.43
2022-12-08T20:13:18.080Z,61.90
2022-12-08T20:15:47.161Z,66.27
2022-12-08T20:18:16.464Z,66.20
2022-12-08T20:20:46.369Z,66.60
2022-12-08T20:23:15.575Z,69.77
2022-12-08T20:25:46.408Z,63.07
2022-12-08T20:28:16.134Z,74.13
2022-12-08T20:30:47.121Z,71.83
2022-12-08T20:33:16.298Z,66.63
2022-12-08T20:35:45.267Z,69.90
2022-12-08T20:38:14.248Z,69.30
2022-12-08T20:40:46.393Z,69.97
2022-12-08T20:43:15.973Z,73.17
2022-12-08T20:45:44.348Z,70.60
2022-12-08T20:48:12.972Z,64.50
2022-12-08T20:50:41.253Z,66.87
2022-12-08T20:53:27.066Z,62.93
2022-12-08T20:55:55.601Z,70.40
2022-12-08T20:58:25.289Z,72.27
2022-12-08T21:00:53.495Z,66.50
2022-12-08T21:03:21.965Z,83.37
2022-12-08T21:05:51.420Z,70.23
2022-12-08T21:08:19.877Z,67.47
2022-12-08T21:10:55.070Z,62.63
2022-12-08T21:13:25.105Z,66.70
2022-12-08T21:15:53.516Z,71.13
2022-12-08T21:18:21.784Z,63.50
2022-12-08T21:20:49.938Z,63.90
2022-12-08T21:23:19.228Z,67.77
2022-12-08T21:25:48.273Z,66.17
2022-12-08T21:28:16.616Z,66.03
2022-12-08T21:30:46.266Z,66.87
2022-12-08T21:33:14.416Z,76.30
2022-12-08T21:35:43.224Z,67.10
2022-12-08T21:38:11.492Z,65.67
2022-12-08T21:40:39.728Z,70.57
2022-12-08T21:43:08.099Z,69.23
2022-12-08T21:45:36.482Z,63.83
2022-12-08T21:48:11.384Z,63.97
2022-12-08T21:50:40.827Z,60.80
2022-12-08T21:53:09.067Z,61.47
2022-12-08T21:55:37.248Z,59.30
2022-12-08T21:58:05.671Z,67.87
2022-12-08T22:00:33.910Z,63.93
2022-12-08T22:03:02.291Z,60.77
2022-12-08T22:05:32.158Z,68.20
2022-12-08T22:08:00.657Z,62.03
2022-12-08T22:10:28.973Z,58.33
2022-12-08T22:12:57.164Z,60.03
2022-12-08T22:15:26.162Z,55.67
2022-12-08T22:17:54.410Z,56.30
2022-12-08T22:20:22.692Z,59.23
2022-12-08T22:22:52.327Z,58.93
2022-12-08T22:25:20.690Z,60.67
2022-12-08T22:27:48.989Z,57.50
2022-12-08T22:30:17.477Z,55.57
2022-12-08T22:32:45.585Z,57.27
2022-12-08T22:35:13.749Z,55.93
2022-12-08T22:37:42.010Z,57.87
2022-12-08T22:40:12.849Z,59.23
2022-12-08T22:42:41.219Z,53.90
2022-12-08T22:45:10.603Z,57.67
2022-12-08T22:47:38.884Z,61.17
2022-12-08T22:50:08.459Z,52.40
2022-12-08T22:52:36.949Z,56.27
2022-12-08T22:55:05.627Z,56.87
2022-12-08T22:57:35.414Z,49.43
2022-12-08T23:00:03.631Z,65.33
2022-12-08T23:02:31.947Z,51.83
2022-12-08T23:05:00.383Z,54.40
2022-12-08T23:07:28.631Z,55.70
2022-12-08T23:09:56.934Z,54.17
2022-12-08T23:12:25.064Z,57.13
2022-12-08T23:14:55.038Z,55.77
2022-12-08T23:17:23.364Z,59.77
2022-12-08T23:19:51.567Z,52.67
2022-12-08T23:22:19.877Z,52.57
2022-12-08T23:24:48.110Z,54.10
2022-12-08T23:27:16.258Z,60.03
2022-12-08T23:29:44.384Z,50.40
2022-12-08T23:32:13.865Z,57.87
2022-12-08T23:34:42.246Z,47.40
2022-12-08T23:37:10.813Z,52.07
2022-12-08T23:39:39.464Z,49.73
2022-12-08T23:42:08.134Z,55.43
2022-12-08T23:44:36.248Z,47.40
2022-12-08T23:47:04.556Z,44.53
2022-12-08T23:49:34.645Z,49.93
2022-12-08T23:52:02.868Z,44.20
2022-12-08T23:54:31.010Z,44.73
2022-12-08T23:56:59.259Z,44.53
2022-12-08T23:59:27.400Z,42.57
